CheckWX is a tool to help pilots better visualize weather data.  It is not intended as a substitute for an official pre-flight weather briefing.

01:03:18 UTC

W29 METAR
Bay Bridge Airport
Stevensville, Maryland, USA
Current

8 mins ago

KW29 180055Z AUTO 02010KT 10SM OVC021 06/02 A3007 RMK AO2
Observed
Nov-18 @ 00:55 UTC
Wind
  • 020° at 10 KTS
Visibility
10 SM
Flight Rules
MVFR
Cloud Levels
  • Overcast at 2,100' AGL
Temperature
C / 43°F
Dewpoint
C / 36°F
Humidity
76%
Altimeter
30.07" Hg
Pressure
1018.32 hPa
Previous

28 mins ago

KW29 180035Z AUTO 03007KT 10SM OVC021 06/02 A3007 RMK AO2
Observed
Nov-18 @ 00:35 UTC
Wind
  • 030° at 7 KTS
Visibility
10 SM
Flight Rules
MVFR
Cloud Levels
  • Overcast at 2,100' AGL
Temperature
C / 43°F
Dewpoint
C / 36°F
Humidity
76%
Altimeter
30.07" Hg
Pressure
1018.32 hPa
Previous

48 mins ago

KW29 180015Z AUTO 03008G19KT 10SM OVC021 06/02 A3007 RMK AO2
Observed
Nov-18 @ 00:15 UTC
Wind
  • 030° at 8 KTS
  • Gusting to 19 KTS
Visibility
10 SM
Flight Rules
MVFR
Cloud Levels
  • Overcast at 2,100' AGL
Temperature
C / 43°F
Dewpoint
C / 36°F
Humidity
76%
Altimeter
30.07" Hg
Pressure
1018.32 hPa